Calvin Dijks

Recruteur en chef - Heracles
8 Janv 2028
Samedi
Processus

Personnalité

Adaptabilité (14) Ambition (11) Controverse (11) Loyauté (11) Pression (6) Professionnalisme (3) Sportivité (18) Tempérament (9)

Profil

Style d'entraînement Démocratique
Diplôme Continental B
Détermination 12
Gestion des joueurs 4
Motivation 6
Discipline 9
Satisfaction professionnelle
100%
Fatigue
0%
Rôle Recruteur en chef
Salaire 42.3K p/s
Contrat 14.03.2030

Performance

Comportement Bon
Efficacité de l'entraînement
44%
Développement des joueurs
50%
Prévention des blessures
30%
Mise en place tactique
60%

Événements récents

A recommandé une cible de transfert maintenant
A recommandé une cible de transfert maintenant
A recommandé une cible de transfert maintenant
A recommandé une cible de transfert maintenant
A recommandé une cible de transfert maintenant
A présenté un dossier au conseil maintenant
A présenté un dossier au conseil maintenant
A présenté un dossier au conseil maintenant

Suivi en cours

123
Joueur Club Statut Capacité Confiance Observé Dernière observation Dernier vote
Thulani Billiat Tigre Actif 136 / 136 61% 1 01.01.2028 Approuver
August De Wannemacker Racing Genk Actif 99 / 114 40% 1 31.12.2027 -
Kauã Moraes Cruzeiro Actif 141 / 120 40% 1 31.12.2027 -
Mbekezeli Mbokazi Chicago Fire Actif 141 / 138 40% 1 27.07.2027 -
Leonardo Mendicino Bari Actif 121 / 121 40% 1 27.07.2027 -
Oumar Camara Vitoria Guimaraes Actif 124 / 135 40% 3 21.07.2027 -
Christos Mouzakitis Hull City Actif 129 / 137 40% 4 21.07.2027 -
Oscar Schwartau Norwich City Actif 124 / 129 40% 1 08.07.2027 -
Pape Diong Westerlo Actif 118 / 118 40% 2 21.06.2027 -
Alan Morinigo Olimpia Actif 109 / 125 40% 1 21.06.2027 -
Patrick Berg Borussia Mönchengladbach Actif 141 / 141 62% 1 01.06.2027 Approuver
Borja Mayoral Getafe Actif 149 / 136 40% 1 31.05.2027 -
Amine Boukamir Charleroi Actif 103 / 102 40% 5 19.05.2027 -
Illaijh de Ruijter ADO Den Haag Actif 117 / 115 40% 2 19.05.2027 -
Noah Nartey Olympique Lyonnais Actif 134 / 130 40% 1 17.05.2027 -
José Pachuca Puebla Actif 98 / 128 40% 3 16.05.2027 -
Mats Egbring Heerenveen Actif 106 / 113 40% 2 15.05.2027 -
Milan Roganović Racing Genk Actif 110 / 118 40% 2 14.05.2027 -
Jon Garro Real Sociedad Actif 92 / 93 40% 2 14.05.2027 -
Gonçalo Oliveira Benfica Actif 101 / 120 40% 4 11.05.2027 -
Taylan Bulut Basaksehir Actif 111 / 121 40% 1 11.05.2027 -
Lucas Mbamba Westerlo Actif 97 / 88 40% 2 10.05.2027 -
Lucas Jetten Cambuur Actif 110 / 114 40% 8 09.05.2027 -
Mohammed El Âdfaoui Charleroi Actif 103 / 115 40% 2 09.05.2027 -
Ismaël Baouf Cambuur Actif 112 / 126 40% 4 08.05.2027 -
Héctor Fort Real Sociedad Actif 131 / 145 40% 5 07.05.2027 -
Kees Smit AZ Actif 146 / 137 40% 2 06.05.2027 Plus d'infos
Yussif Saidu Zaragoza Actif 118 / 122 40% 4 01.05.2027 -
João Simões Sporting CP Actif 127 / 133 40% 2 30.04.2027 -
Leandro Martins Benfica Actif 89 / 99 40% 1 29.04.2027 -
Thomas Alderweireld Dijon Actif 134 / 138 40% 3 28.04.2027 -
Sascha Britschgi Catanzaro Actif 110 / 129 40% 2 26.04.2027 -
João Teixeira Porto Actif 103 / 119 40% 1 21.04.2027 -
Martim Cunha Porto Actif 109 / 106 40% 1 18.04.2027 -
Gladson Sulemana Liberty Professionals Actif 92 / 106 40% 1 18.04.2027 -
Dylan Lawlor Cardiff City Actif 107 / 124 40% 1 05.04.2027 -
Yusi Alavés Actif 133 / 129 40% 4 03.04.2027 -
Taras Mykhavko Dynamo Kyiv Actif 122 / 119 40% 1 29.03.2027 -
Vasco Santos Oliveirense Actif 97 / 91 40% 1 29.03.2027 -
Tiago Freitas Benfica Actif 101 / 117 40% 1 27.03.2027 -
Riquelme Thompson-Jones Shrewsbury Town Actif 104 / 118 40% 3 24.03.2027 -
Thijs Kraaijeveld Feyenoord Actif 105 / 121 40% 1 22.03.2027 -
Edmund Inusah WAFA Actif 82 / 83 40% 1 18.03.2027 -
Louis Leroux FC Nantes Actif 118 / 130 40% 1 13.03.2027 -
Joaquin Seys Club Brugge Actif 121 / 126 40% 4 07.03.2027 -
Santiago Fernández Eibar Actif 115 / 126 40% 1 05.03.2027 -
Abraham Paintsil Hasaacas Actif 85 / 98 40% 1 05.03.2027 -
Yaimar Medina Racing Genk Actif 113 / 131 40% 2 18.01.2027 -
Robert-Jan Vanwesemael Dijon Actif 120 / 121 40% 2 18.01.2027 -
Sam Ringeling Feyenoord Actif 108 / 105 55% 1 18.01.2027 -
Sindre Walle Egeli Nottingham Forest Actif 137 / 135 40% 1 11.01.2027 -
Adrian Dragusin CFR Cluj Négociation 141 / 142 63% 1 01.01.2027 Approuver
Amar Memić Juventude Négociation 127 / 128 62% 1 01.01.2027 Approuver
Roberto Fernández Braga Négociation 138 / 140 66% 1 01.01.2027 Approuver
Mao Hosoya Manchester City Actif 134 / 135 67% 1 01.01.2027 Approuver
Sunusi Audu New Edubiase United Actif 80 / 82 40% 1 30.12.2026 -
Myron van Brederode KV Mechelen Actif 125 / 122 40% 2 29.12.2026 -
Julio Enciso Ipswich Town Actif 147 / 150 40% 1 29.12.2026 -
Chris Lokesa Waasland-Beveren Actif 113 / 126 40% 2 28.12.2026 -
George Brown Sheffield Wednesday Actif 94 / 105 40% 2 25.12.2026 -
Jeffrey Adjei Wa All Stars Actif 76 / 86 40% 1 24.12.2026 -
Siebe Van Keymolen Zulte Waregem Actif 87 / 107 40% 2 23.12.2026 -
Matías Fernández-Pardo Newcastle United Actif 132 / 149 40% 3 20.12.2026 -
Jones El-Abdellaoui Celta Actif 121 / 132 40% 3 19.12.2026 -
Matías Contrera Northampton Town Actif 93 / 104 40% 3 18.12.2026 -
Thalys Almería Actif 112 / 118 40% 1 17.12.2026 -
Bjorn Meijer Sampdoria Actif 122 / 124 40% 1 16.12.2026 -
José Marsà KV Mechelen Actif 121 / 124 40% 1 16.12.2026 -
Senny Mayulu Paris Saint-Germain Actif 141 / 151 40% 1 14.12.2026 -
Zinho Castagne KV Oostende Actif 138 / 142 40% 1 13.12.2026 -
Marley Aké Zulte Waregem Actif 120 / 113 40% 1 13.12.2026 -
Tijn den Boggende Utrecht Actif 112 / 111 55% 4 11.12.2026 -
Shandre Campbell KV Kortrijk Actif 105 / 112 40% 3 11.12.2026 -
Patrick Preciado Deportivo Pasto Actif 118 / 99 40% 1 10.12.2026 -
Thomas Claes Zulte Waregem Actif 121 / 116 40% 2 09.12.2026 -
Patati AZ Actif 128 / 127 40% 1 09.12.2026 -
Tiago Araújo KAA Gent Actif 111 / 114 40% 1 09.12.2026 -
Zico Buurmeester Leganés Actif 128 / 126 40% 1 07.12.2026 -
Halil Özdemir KV Mechelen Actif 91 / 106 40% 2 06.12.2026 -
Enzo Loiodice KAA Gent Actif 133 / 130 40% 1 05.12.2026 -
Brahim Díaz Real Madrid Actif 159 / 154 40% 1 05.12.2026 -
Shunsuke Saito Westerlo Actif 90 / 108 40% 3 01.12.2026 -
Yari Vanderhallen Racing Genk Actif 84 / 90 40% 1 26.11.2026 -
Luca Monticelli Lokeren Actif 97 / 99 40% 1 25.11.2026 -
Jan Virgili Club Brugge Actif 129 / 141 40% 2 23.11.2026 -
Mihailo Ivanović Millwall Actif 130 / 119 40% 4 23.11.2026 -
Sylvester Jasper Standard Liege Actif 109 / 124 40% 1 23.11.2026 -
Mathys Tel Stade Rennais Actif 135 / 153 40% 2 20.11.2026 -
Cisse Sandra Westerlo Actif 109 / 120 40% 1 20.11.2026 -
Radja Meunier KV Oostende Actif 121 / 114 40% 1 20.11.2026 -
Yoël van den Ban AZ Actif 101 / 121 40% 3 14.11.2026 -
Kevin Amaro Racing Genk Actif 125 / 132 40% 2 11.11.2026 -
Ayoub Oufkir AZ Actif 136 / 127 40% 2 06.11.2026 -
Kevin Chadli Mouscron Actif 117 / 118 40% 2 05.11.2026 -
Jorrel Hato Chelsea Actif 141 / 150 40% 2 05.11.2026 -
Thibaud Verlinden OH Leuven Actif 117 / 126 40% 2 05.11.2026 -
Darren Yapi Colorado Rapids Actif 110 / 120 40% 1 29.10.2026 -
Mitchel Bakker Rostov Actif 137 / 117 40% 3 19.10.2026 -
Mario Stroeykens Anderlecht Actif 134 / 121 40% 1 19.10.2026 -
Tiziano Dornell Almagro Actif 127 / 121 40% 2 18.10.2026 -
Tristan Degreef Anderlecht Actif 129 / 125 40% 2 18.10.2026 -
Elliot Anderson Manchester City Actif 152 / 152 40% 1 15.10.2026 -
Matisse Samoise KAA Gent Actif 131 / 114 40% 1 13.10.2026 -
Xavi Simons Tottenham Actif 154 / 152 40% 1 13.10.2026 -
Thomas Van Den Keybus Westerlo Actif 125 / 110 40% 1 10.10.2026 -
Abdelkahar Kadri KAA Gent Actif 120 / 124 40% 1 09.10.2026 -
William Balikwisha OH Leuven Actif 111 / 123 40% 1 09.10.2026 -
Kyriani Sabbe Club Brugge Actif 117 / 131 40% 1 06.10.2026 -
Tommy St. Jago KV Mechelen Actif 119 / 117 40% 1 06.10.2026 -
David Kalokoh Ajax Actif 120 / 113 40% 1 06.10.2026 -
Sidiki Chérif Coventry City Actif 132 / 133 40% 1 20.09.2026 -
Ilay Camara Anderlecht Actif 135 / 125 40% 2 18.09.2026 -
Quinten Timber Crystal Palace Actif 159 / 144 40% 1 18.09.2026 -
Freddie Potts Club Brugge Actif 142 / 125 40% 1 16.09.2026 -
Pascal Struijk Brighton Actif 133 / 146 40% 1 16.09.2026 -
Tyrell Malacia Derby County Actif 131 / 133 40% 1 15.09.2026 -
Sieben Dewaele Waasland-Beveren Actif 104 / 121 40% 1 15.09.2026 -
Peer Koopmeiners AZ Actif 126 / 138 40% 1 14.09.2026 -
Matteo Dams Club Brugge Actif 132 / 137 40% 2 13.09.2026 -
Anton Stach Leeds United Actif 150 / 142 40% 1 11.09.2026 -
Taiga Hata Sint-Truiden Actif 111 / 114 40% 1 10.09.2026 -
Gora Diouf KV Mechelen Actif 103 / 121 40% 1 08.09.2026 -
Niklas Vesterlund Utrecht Actif 116 / 109 55% 1 10.08.2026 -